Time;durP1;ratioP1;P1;durP2;ratioP2;P2;SDS_P1;SDS_P2;PMS_P1;PMS_P2;Temp;Humidity;BMP_temperature;BMP_pressure;BME280_temperature;BME280_humidity;BME280_pressure;Samples;Min_cycle;Max_cycle;Signal;HPM_P1;HPM_P2
2022/03/19 00:02:49;;;;;;;61.23;42.80;;;;;;;10.06;56.02;100947.28;7059825;28;20291;-78
2022/03/19 00:06:11;;;;;;;61.13;40.30;;;;;;;10.53;54.58;100956.91;7060233;28;20217;-78
2022/03/19 00:09:34;;;;;;;61.57;41.27;;;;;;;10.36;54.95;100955.03;7060920;28;20201;-78
2022/03/19 00:12:58;;;;;;;61.00;43.20;;;;;;;10.66;53.88;100958.25;7061193;28;20212;-79
2022/03/19 00:16:21;;;;;;;61.07;40.97;;;;;;;10.54;54.09;100951.38;7060637;28;20685;-79
2022/03/19 00:19:43;;;;;;;62.33;43.43;;;;;;;9.74;56.21;100942.28;7040626;28;20225;-78
2022/03/19 00:23:05;;;;;;;53.20;36.77;;;;;;;10.30;54.50;100951.09;7004166;28;20347;-79
2022/03/19 00:26:28;;;;;;;57.27;40.07;;;;;;;10.40;54.47;100948.34;7003803;28;20422;-79
2022/03/19 00:29:50;;;;;;;60.90;40.83;;;;;;;10.52;53.88;100949.81;7003402;28;20237;-78
2022/03/19 00:33:12;;;;;;;58.33;42.53;;;;;;;10.22;54.12;100948.31;7004040;28;20707;-78
2022/03/19 00:36:34;;;;;;;52.57;37.13;;;;;;;10.26;53.92;100947.00;7003423;28;20225;-82
2022/03/19 00:39:56;;;;;;;56.73;37.47;;;;;;;10.54;53.52;100940.56;7003761;28;20205;-79
2022/03/19 00:43:20;;;;;;;57.90;39.80;;;;;;;10.10;54.65;100927.94;7003570;28;20194;-79
2022/03/19 00:46:42;;;;;;;57.63;40.77;;;;;;;10.29;53.88;100935.94;7002958;28;20218;-78
2022/03/19 00:50:04;;;;;;;54.13;39.07;;;;;;;9.75;55.09;100913.50;7003402;28;20224;-78
2022/03/19 00:53:25;;;;;;;56.20;39.47;;;;;;;10.33;53.58;100928.38;7003178;28;20293;-78
2022/03/19 00:56:47;;;;;;;53.53;39.73;;;;;;;9.86;54.38;100932.16;7002409;28;20230;-79
2022/03/19 01:00:12;;;;;;;50.77;38.03;;;;;;;9.55;55.44;100925.31;7003079;28;20211;-79
2022/03/19 01:03:33;;;;;;;55.67;41.30;;;;;;;9.73;54.85;100929.81;7001600;28;20205;-78
2022/03/19 01:06:55;;;;;;;52.67;37.80;;;;;;;9.72;55.39;100916.47;7001185;28;20622;-79
2022/03/19 01:10:18;;;;;;;56.80;38.10;;;;;;;10.07;53.97;100914.78;7020043;28;20212;-79
2022/03/19 01:13:39;;;;;;;53.60;38.00;;;;;;;9.79;54.72;100925.66;7047267;28;20646;-79
2022/03/19 01:17:03;;;;;;;51.87;36.93;;;;;;;9.76;55.14;100925.97;7055791;28;20267;-79
2022/03/19 01:20:25;;;;;;;53.17;38.53;;;;;;;9.91;54.42;100911.00;7057593;28;20208;-79
2022/03/19 01:23:46;;;;;;;57.30;37.87;;;;;;;9.42;55.20;100893.38;7045212;28;20643;-78
2022/03/19 01:27:08;;;;;;;51.23;37.57;;;;;;;9.70;54.79;100905.00;7051492;28;20259;-79
2022/03/19 01:30:29;;;;;;;52.53;37.37;;;;;;;9.99;53.91;100920.03;7056275;28;20333;-79
2022/03/19 01:33:52;;;;;;;54.30;37.67;;;;;;;9.91;54.15;100905.59;7057027;28;20212;-79
2022/03/19 01:37:14;;;;;;;56.53;38.60;;;;;;;9.85;54.51;100906.19;7024217;28;20237;-81
2022/03/19 01:40:36;;;;;;;53.63;39.60;;;;;;;9.86;54.03;100902.53;6998881;28;20554;-80
2022/03/19 01:43:58;;;;;;;52.00;40.20;;;;;;;9.07;55.46;100917.41;7000830;28;20220;-81
2022/03/19 01:47:20;;;;;;;54.90;38.00;;;;;;;9.50;55.08;100906.09;7005305;28;20704;-81
2022/03/19 01:50:43;;;;;;;53.13;37.70;;;;;;;9.61;54.81;100889.72;7028360;28;20290;-81
2022/03/19 01:54:05;;;;;;;51.33;38.13;;;;;;;9.36;55.08;100898.47;7028622;28;20270;-81
2022/03/19 01:57:29;;;;;;;55.57;37.07;;;;;;;9.80;53.87;100901.25;7019517;28;20230;-80
2022/03/19 02:00:51;;;;;;;54.13;38.27;;;;;;;9.48;54.88;100903.53;7001512;28;20209;-80
2022/03/19 02:04:12;;;;;;;55.93;40.03;;;;;;;9.23;55.27;100895.25;7024194;28;20250;-80
2022/03/19 02:07:35;;;;;;;53.80;34.87;;;;;;;9.81;53.89;100884.09;7020157;28;20316;-80
2022/03/19 02:10:57;;;;;;;56.77;36.67;;;;;;;9.76;54.02;100894.50;7003032;28;20571;-80
2022/03/19 02:14:19;;;;;;;55.20;38.50;;;;;;;9.19;55.21;100888.47;7001814;28;20244;-80
2022/03/19 02:17:41;;;;;;;54.77;37.37;;;;;;;9.41;54.93;100890.81;7003092;28;20267;-80
2022/03/19 02:21:02;;;;;;;51.67;36.20;;;;;;;10.12;52.84;100887.38;7004204;28;20209;-80
2022/03/19 02:28:05;;;;;;;56.40;37.00;;;;;;;9.51;54.32;100903.25;7002863;28;20253;-80
2022/03/19 02:31:27;;;;;;;52.43;35.40;;;;;;;9.73;53.75;100880.47;7003896;28;20206;-80
2022/03/19 02:34:48;;;;;;;51.27;37.03;;;;;;;9.40;53.79;100863.03;7004302;28;20224;-80
2022/03/19 02:38:10;;;;;;;49.33;35.93;;;;;;;9.34;53.35;100844.78;7003664;28;20232;-80
2022/03/19 02:41:33;;;;;;;56.83;36.70;;;;;;;10.15;51.98;100879.00;7004495;28;20270;-80
2022/03/19 02:44:54;;;;;;;51.03;33.60;;;;;;;10.55;50.64;100872.13;7003038;28;20209;-80
2022/03/19 02:48:16;;;;;;;50.30;33.67;;;;;;;10.38;50.82;100874.81;7001614;28;20225;-80
2022/03/19 02:51:39;;;;;;;46.23;33.00;;;;;;;9.88;51.69;100881.66;7001758;28;20209;-80
2022/03/19 02:55:00;;;;;;;52.70;36.43;;;;;;;9.88;51.74;100869.06;7001997;28;20657;-80
2022/03/19 02:58:23;;;;;;;50.93;36.87;;;;;;;9.21;53.46;100878.41;7000832;28;20317;-80
2022/03/19 03:01:45;;;;;;;48.13;34.60;;;;;;;9.80;52.08;100855.47;7000856;28;20306;-80
2022/03/19 03:05:07;;;;;;;53.10;34.83;;;;;;;10.11;51.47;100877.59;7001687;28;20210;-80
2022/03/19 03:08:29;;;;;;;50.57;35.30;;;;;;;9.68;52.73;100872.00;7013188;28;20313;-80
2022/03/19 03:11:53;;;;;;;49.73;34.53;;;;;;;9.98;51.61;100875.22;7029813;28;20288;-80
2022/03/19 03:15:16;;;;;;;49.50;33.73;;;;;;;9.80;51.47;100865.41;7031100;28;20261;-80
2022/03/19 03:18:38;;;;;;;53.20;35.83;;;;;;;9.49;52.21;100869.38;7029109;28;20373;-81
2022/03/19 03:21:59;;;;;;;46.83;34.83;;;;;;;9.84;51.35;100874.88;7028684;28;20269;-81
2022/03/19 03:25:21;;;;;;;47.83;33.27;;;;;;;9.93;51.68;100864.03;7017842;28;20571;-81
2022/03/19 03:28:43;;;;;;;51.80;36.00;;;;;;;10.55;49.78;100880.22;7033751;28;20581;-81
2022/03/19 03:32:07;;;;;;;48.00;33.97;;;;;;;10.03;50.87;100880.16;7041911;28;20346;-81
2022/03/19 03:35:28;;;;;;;49.60;34.60;;;;;;;9.99;51.03;100865.28;7041488;28;20292;-81
2022/03/19 03:38:50;;;;;;;47.20;33.03;;;;;;;9.97;50.35;100872.66;7040436;28;20237;-81
2022/03/19 03:42:12;;;;;;;47.73;33.60;;;;;;;10.13;50.20;100873.75;7041322;28;20282;-81
2022/03/19 03:45:33;;;;;;;47.10;32.13;;;;;;;9.83;50.95;100868.66;7038034;28;20220;-81
2022/03/19 03:48:56;;;;;;;45.07;33.03;;;;;;;9.70;51.53;100870.81;7031446;28;20320;-81
2022/03/19 03:52:18;;;;;;;44.93;32.90;;;;;;;9.71;50.76;100859.06;7028278;28;20205;-81
2022/03/19 03:55:40;;;;;;;48.00;33.73;;;;;;;9.80;50.31;100823.13;7029545;28;20208;-81
2022/03/19 03:59:01;;;;;;;45.00;31.93;;;;;;;10.27;49.23;100862.41;7028379;28;20601;-80
2022/03/19 04:02:23;;;;;;;46.40;34.70;;;;;;;9.80;50.45;100866.25;7029557;28;20239;-80
2022/03/19 04:05:46;;;;;;;46.77;31.23;;;;;;;10.02;49.73;100863.13;7028351;28;20254;-80
2022/03/19 04:09:08;;;;;;;49.93;33.10;;;;;;;10.36;48.97;100860.66;7029186;28;20272;-80
2022/03/19 04:12:29;;;;;;;46.40;32.57;;;;;;;10.63;48.26;100852.47;7029044;28;20281;-81
2022/03/19 04:15:51;;;;;;;49.67;32.00;;;;;;;10.34;48.61;100855.41;7028587;28;20299;-80
2022/03/19 04:19:12;;;;;;;45.90;31.50;;;;;;;10.29;49.17;100854.19;7028278;28;20229;-80
2022/03/19 04:22:36;;;;;;;46.40;35.97;;;;;;;9.44;49.54;100861.75;7029508;28;20224;-81
2022/03/19 04:25:58;;;;;;;46.20;33.30;;;;;;;10.03;49.10;100858.59;7028613;28;20228;-80
2022/03/19 04:29:20;;;;;;;47.80;34.00;;;;;;;10.51;47.82;100843.78;7027864;28;20620;-80
2022/03/19 04:32:42;;;;;;;46.23;32.23;;;;;;;10.04;48.76;100849.56;7029086;28;20192;-80
2022/03/19 04:39:45;;;;;;;45.27;30.80;;;;;;;10.06;48.20;100816.06;7002298;28;20575;-80
2022/03/19 04:43:08;;;;;;;47.50;32.03;;;;;;;10.02;48.46;100854.19;7005848;28;20209;-80
2022/03/19 04:46:30;;;;;;;41.93;30.07;;;;;;;10.36;47.62;100849.88;7001225;28;20226;-80
2022/03/19 04:49:51;;;;;;;46.00;31.57;;;;;;;10.49;47.25;100837.69;7005011;28;20577;-80
2022/03/19 04:53:13;;;;;;;45.70;32.17;;;;;;;10.40;47.43;100849.41;7005691;28;20202;-80
2022/03/19 04:56:36;;;;;;;42.37;29.87;;;;;;;10.54;47.16;100848.88;7004733;28;20232;-80
2022/03/19 04:59:59;;;;;;;45.40;30.70;;;;;;;10.74;46.03;100827.97;7005210;28;20229;-80
2022/03/19 05:03:20;;;;;;;47.07;31.10;;;;;;;10.55;46.85;100838.91;7004267;28;20681;-80
2022/03/19 05:06:42;;;;;;;44.63;31.43;;;;;;;9.80;47.50;100780.03;7003428;28;20235;-81
2022/03/19 05:13:47;;;;;;;50.10;31.60;;;;;;;9.91;47.96;100830.16;7002026;28;20225;-81
2022/03/19 05:17:09;;;;;;;44.53;30.83;;;;;;;10.00;47.83;100840.03;7017554;28;20220;-81
2022/03/19 05:20:32;;;;;;;42.23;29.33;;;;;;;10.17;47.29;100833.84;7031118;28;20573;-81
2022/03/19 05:23:55;;;;;;;50.33;31.20;;;;;;;10.13;47.20;100829.75;7031437;28;20204;-82
2022/03/19 05:27:17;;;;;;;47.63;31.70;;;;;;;10.38;46.77;100832.53;7030421;28;20255;-81
2022/03/19 05:30:40;;;;;;;44.53;29.87;;;;;;;9.92;47.32;100816.53;7030425;28;20208;-82
2022/03/19 05:37:41;;;;;;;47.77;30.77;;;;;;;9.91;47.39;100832.84;7029776;28;20229;-81
2022/03/19 05:41:03;;;;;;;47.50;31.53;;;;;;;10.02;47.49;100825.41;7030979;28;20224;-81
2022/03/19 05:44:26;;;;;;;47.93;30.53;;;;;;;9.92;47.89;100829.19;7030412;28;20226;-82
2022/03/19 05:47:49;;;;;;;46.10;31.47;;;;;;;9.17;49.07;100824.00;7029933;28;20228;-81
2022/03/19 05:51:11;;;;;;;44.53;30.23;;;;;;;9.67;48.34;100828.03;7031006;28;20581;-81
2022/03/19 05:54:32;;;;;;;47.10;29.97;;;;;;;9.86;47.37;100830.63;7030231;28;20787;-81
2022/03/19 05:57:54;;;;;;;50.80;32.60;;;;;;;9.99;47.63;100819.47;7029021;28;20225;-81
2022/03/19 06:01:15;;;;;;;46.50;30.63;;;;;;;9.53;47.79;100806.16;7028727;28;20293;-81
2022/03/19 06:04:39;;;;;;;50.03;30.07;;;;;;;9.55;48.61;100831.06;7029415;28;20236;-81
2022/03/19 06:08:01;;;;;;;42.67;29.43;;;;;;;9.85;47.82;100826.22;7028542;28;20229;-81
2022/03/19 06:11:23;;;;;;;45.53;30.80;;;;;;;9.80;47.15;100825.81;7028437;28;20205;-81
2022/03/19 06:14:44;;;;;;;43.97;30.93;;;;;;;9.56;47.78;100828.25;7027720;28;20201;-81
2022/03/19 06:18:06;;;;;;;42.10;30.47;;;;;;;9.45;48.55;100822.22;7030010;28;20705;-81
2022/03/19 06:21:29;;;;;;;46.47;32.00;;;;;;;8.98;49.89;100824.06;7034157;28;20592;-81
2022/03/19 06:24:51;;;;;;;45.73;30.20;;;;;;;9.59;48.36;100792.09;7039012;28;20272;-82
2022/03/19 06:28:13;;;;;;;44.20;31.47;;;;;;;9.70;48.07;100819.66;7042535;28;20225;-81
2022/03/19 06:31:34;;;;;;;50.13;32.50;;;;;;;9.25;48.85;100791.84;7041748;28;20204;-81
2022/03/19 06:34:56;;;;;;;40.87;29.60;;;;;;;10.62;45.83;100799.53;7041739;28;20701;-82
2022/03/19 06:38:18;;;;;;;41.70;29.80;;;;;;;10.76;45.78;100820.53;7027488;28;20302;-83
2022/03/19 06:41:39;;;;;;;45.10;31.17;;;;;;;9.97;47.63;100806.16;7025544;28;20427;-82
2022/03/19 06:45:01;;;;;;;44.00;29.33;;;;;;;10.29;45.72;100811.03;7031167;28;20220;-80
2022/03/19 06:48:27;;;;;;;41.67;28.73;;;;;;;9.45;47.35;100760.28;7031348;28;20245;-83
2022/03/19 06:51:52;;;;;;;41.33;30.03;;;;;;;10.37;45.43;100816.50;7042376;28;20217;-84
2022/03/19 06:55:15;;;;;;;37.93;27.60;;;;;;;10.87;44.68;100810.31;7041633;28;20205;-86
2022/03/19 06:58:37;;;;;;;40.10;28.97;;;;;;;10.12;46.18;100817.28;7038236;28;20290;-85
2022/03/19 07:02:08;;;;;;;40.23;28.53;;;;;;;9.83;45.48;100751.94;7040720;28;20654;-87
2022/03/19 07:05:31;;;;;;;39.63;27.83;;;;;;;10.28;44.87;100807.50;7039377;28;20696;-82
2022/03/19 07:08:52;;;;;;;38.50;29.20;;;;;;;9.61;46.46;100804.41;7041861;28;20272;-84
2022/03/19 07:12:15;;;;;;;38.00;27.43;;;;;;;9.75;46.36;100793.09;7041454;28;20662;-85
2022/03/19 07:15:37;;;;;;;40.03;27.27;;;;;;;9.82;46.25;100769.13;7037871;28;20204;-84
2022/03/19 07:18:59;;;;;;;40.90;27.90;;;;;;;9.92;45.92;100794.97;7038562;28;20228;-83
2022/03/19 07:22:20;;;;;;;38.47;25.63;;;;;;;10.54;44.09;100796.75;7029441;28;20295;-82
2022/03/19 07:25:43;;;;;;;34.77;24.17;;;;;;;10.15;44.88;100752.28;7028950;28;20212;-79
2022/03/19 07:29:06;;;;;;;36.23;24.90;;;;;;;10.58;44.07;100784.66;7028144;28;20224;-79
2022/03/19 07:32:30;;;;;;;38.57;25.33;;;;;;;9.89;45.08;100799.81;7027188;28;20232;-79
2022/03/19 07:35:51;;;;;;;36.90;24.67;;;;;;;11.18;42.78;100765.66;7027863;28;20220;-79
2022/03/19 07:39:13;;;;;;;34.47;26.03;;;;;;;11.04;41.64;100779.72;7027143;28;20764;-79
2022/03/19 07:42:35;;;;;;;33.87;25.00;;;;;;;11.95;39.68;100792.44;7027739;28;20299;-80
2022/03/19 07:45:58;;;;;;;34.03;26.87;;;;;;;11.23;40.77;100778.66;7026775;28;20244;-80
2022/03/19 07:49:19;;;;;;;31.83;23.00;;;;;;;12.14;39.96;100770.50;7015349;28;20304;-80
2022/03/19 07:52:43;;;;;;;31.83;23.60;;;;;;;13.41;37.62;100764.09;7023026;28;20321;-79
2022/03/19 07:56:06;;;;;;;30.53;23.83;;;;;;;13.35;37.07;100764.81;6998590;28;20206;-79
2022/03/19 07:59:28;;;;;;;35.33;23.80;;;;;;;12.96;36.69;100766.63;6999095;28;20237;-79
2022/03/19 08:02:52;;;;;;;30.83;23.10;;;;;;;11.88;38.95;100759.00;6999455;28;20222;-80
2022/03/19 08:06:14;;;;;;;30.60;23.37;;;;;;;12.15;37.19;100739.78;6998846;28;20210;-79
2022/03/19 08:09:36;;;;;;;28.10;21.23;;;;;;;11.94;38.46;100766.44;6998573;28;20230;-79
2022/03/19 08:13:03;;;;;;;28.73;21.67;;;;;;;12.14;37.19;100765.09;6998256;28;20349;-79
2022/03/19 08:16:25;;;;;;;29.93;21.43;;;;;;;11.26;39.18;100749.47;6998510;28;20187;-78
2022/03/19 08:19:48;;;;;;;31.50;20.83;;;;;;;11.98;37.58;100775.91;6999270;28;20229;-79
2022/03/19 08:23:10;;;;;;;28.77;20.93;;;;;;;12.91;36.20;100768.97;6999413;28;20240;-78
2022/03/19 08:26:32;;;;;;;30.43;21.33;;;;;;;12.65;36.23;100778.31;6999593;28;20363;-79
2022/03/19 08:29:55;;;;;;;32.57;21.00;;;;;;;12.55;35.28;100743.31;7003644;28;20206;-81
2022/03/19 08:33:17;;;;;;;28.90;21.63;;;;;;;12.51;36.49;100773.59;7018938;28;20358;-79
2022/03/19 08:36:40;;;;;;;26.13;20.43;;;;;;;11.82;37.29;100733.50;7025476;28;20258;-79
2022/03/19 08:40:17;;;;;;;29.97;21.87;;;;;;;11.36;38.15;100736.69;7025894;28;20228;-79
2022/03/19 08:43:38;;;;;;;31.20;22.47;;;;;;;11.99;37.18;100750.56;7026112;28;20177;-79
2022/03/19 08:47:02;;;;;;;26.97;21.13;;;;;;;11.58;38.08;100756.84;7025765;28;20221;-77
2022/03/19 08:50:27;;;;;;;27.67;21.40;;;;;;;12.65;36.58;100719.63;7025636;28;20198;-79
2022/03/19 08:53:50;;;;;;;31.00;21.70;;;;;;;13.32;35.13;100720.94;7026131;28;20208;-79
2022/03/19 08:57:11;;;;;;;30.43;22.07;;;;;;;11.91;38.30;100753.22;7025751;28;20225;-79
2022/03/19 09:00:33;;;;;;;28.43;22.73;;;;;;;13.65;35.31;100736.03;7026280;28;20232;-79
2022/03/19 09:03:55;;;;;;;32.73;22.93;;;;;;;12.74;35.81;100733.97;7025915;28;20213;-79
2022/03/19 09:07:18;;;;;;;31.00;22.60;;;;;;;13.28;35.89;100744.00;7025093;28;20748;-79
2022/03/19 09:10:41;;;;;;;30.43;22.23;;;;;;;13.12;36.10;100722.38;7025169;28;20214;-79
2022/03/19 09:14:03;;;;;;;31.87;23.37;;;;;;;12.82;35.43;100709.59;7026040;28;20572;-80
2022/03/19 09:17:25;;;;;;;29.50;22.20;;;;;;;13.24;36.40;100715.56;7024784;28;20367;-79
2022/03/19 09:20:47;;;;;;;28.97;22.40;;;;;;;13.08;34.45;100686.69;7024900;28;20302;-80
2022/03/19 09:24:08;;;;;;;29.73;22.00;;;;;;;14.39;34.80;100703.66;7025072;28;20576;-79
2022/03/19 09:27:31;;;;;;;29.83;23.57;;;;;;;14.09;35.08;100696.44;7024638;28;20260;-79
2022/03/19 09:30:53;;;;;;;33.70;22.47;;;;;;;15.14;33.35;100706.06;7024968;28;20204;-79
2022/03/19 09:34:14;;;;;;;28.77;22.00;;;;;;;14.62;33.38;100669.97;7024914;28;20225;-79
2022/03/19 09:37:36;;;;;;;29.63;23.27;;;;;;;14.50;33.35;100676.03;7024463;28;20311;-79
2022/03/19 09:40:58;;;;;;;29.87;23.37;;;;;;;14.98;32.79;100662.78;7025312;28;20567;-79
2022/03/19 09:44:25;;;;;;;37.33;23.43;;;;;;;14.03;33.89;100653.72;7024982;28;20298;-79
2022/03/19 09:47:46;;;;;;;30.07;22.40;;;;;;;14.48;33.48;100672.69;7024510;28;20258;-78
2022/03/19 09:51:09;;;;;;;32.23;23.13;;;;;;;14.82;33.70;100664.84;7024778;28;20356;-79
2022/03/19 09:54:31;;;;;;;32.33;23.70;;;;;;;15.80;31.77;100653.34;7018712;28;20215;-79
2022/03/19 09:57:53;;;;;;;29.53;21.97;;;;;;;16.43;30.77;100637.81;7024216;28;20312;-79
2022/03/19 10:01:17;;;;;;;29.33;22.93;;;;;;;15.69;31.72;100640.25;7024426;28;20347;-79
2022/03/19 10:04:40;;;;;;;31.00;23.20;;;;;;;16.03;31.87;100632.19;7024754;28;20201;-79
2022/03/19 10:11:50;;;;;;;29.70;23.67;;;;;;;15.38;32.32;100613.34;7023425;28;20183;-79
2022/03/19 10:15:11;;;;;;;34.90;25.30;;;;;;;14.59;34.08;100626.94;7024597;28;20188;-79
2022/03/19 10:18:34;;;;;;;33.27;23.70;;;;;;;14.68;34.43;100622.25;7023433;28;20231;-80
2022/03/19 10:22:07;;;;;;;33.97;23.80;;;;;;;15.50;33.35;100609.09;7024272;28;20227;-79
2022/03/19 10:25:29;;;;;;;33.73;24.47;;;;;;;16.29;31.95;100619.66;7028000;28;20813;-79
2022/03/19 10:28:57;;;;;;;33.97;26.17;;;;;;;16.15;31.85;100623.31;7017747;28;20740;-79
2022/03/19 10:32:20;;;;;;;31.07;24.33;;;;;;;15.49;33.25;100582.97;7024396;28;20209;-78
2022/03/19 10:35:43;;;;;;;37.87;25.67;;;;;;;15.57;34.49;100617.34;7026690;28;20265;-78
2022/03/19 10:39:07;;;;;;;35.10;26.50;;;;;;;14.79;34.88;100606.31;7029479;28;20317;-78
2022/03/19 10:42:36;;;;;;;31.10;25.07;;;;;;;13.78;35.74;100596.16;7029166;28;20296;-78
2022/03/19 10:46:00;;;;;;;29.87;21.93;;;;;;;14.93;34.52;100588.34;7028873;28;20760;-78
2022/03/19 10:49:24;;;;;;;27.33;21.67;;;;;;;15.38;33.46;100560.84;7028524;28;20220;-78
2022/03/19 10:52:48;;;;;;;28.30;21.33;;;;;;;15.77;31.79;100561.25;7029752;28;20291;-78
2022/03/19 10:56:09;;;;;;;25.13;19.20;;;;;;;15.23;32.25;100525.53;7028702;28;20719;-77
2022/03/19 10:59:31;;;;;;;24.40;19.17;;;;;;;16.42;31.35;100537.28;7030796;28;20270;-77
2022/03/19 11:02:54;;;;;;;20.63;16.67;;;;;;;17.33;29.51;100515.84;7028824;28;20216;-78
2022/03/19 11:06:17;;;;;;;19.00;13.33;;;;;;;16.73;27.39;100524.03;7028316;28;20733;-78
2022/03/19 11:09:40;;;;;;;17.20;13.03;;;;;;;17.10;27.32;100504.47;7027790;28;20288;-78
2022/03/19 11:13:03;;;;;;;17.97;12.33;;;;;;;16.37;27.36;100532.41;7028682;28;20194;-77
2022/03/19 11:16:27;;;;;;;15.03;12.00;;;;;;;14.64;29.11;100536.78;7027451;28;20689;-76
2022/03/19 11:19:49;;;;;;;14.53;12.60;;;;;;;15.29;29.07;100511.19;7028238;28;20227;-77
2022/03/19 11:23:12;;;;;;;17.97;13.77;;;;;;;15.92;27.96;100496.72;7027829;28;20216;-77
2022/03/19 11:26:40;;;;;;;17.30;12.40;;;;;;;14.54;30.25;100514.50;7027679;28;20254;-77
2022/03/19 11:30:03;;;;;;;16.43;12.53;;;;;;;15.80;29.31;100488.25;7028576;28;20191;-77
2022/03/19 11:33:25;;;;;;;16.97;13.93;;;;;;;16.07;28.82;100492.84;7027654;28;20224;-78
2022/03/19 11:36:56;;;;;;;22.00;14.77;;;;;;;14.55;31.97;100481.75;7027123;28;20365;-78
2022/03/19 11:40:29;;;;;;;17.23;13.00;;;;;;;15.47;30.89;100481.72;7027350;28;20315;-79
2022/03/19 11:44:23;;;;;;;15.53;12.60;;;;;;;17.20;30.02;100459.41;7027717;28;20214;-78
2022/03/19 11:47:46;;;;;;;20.00;14.83;;;;;;;15.21;30.46;100467.84;7027235;28;20229;-78
2022/03/19 11:51:16;;;;;;;17.10;12.40;;;;;;;16.98;29.99;100449.72;7027482;28;20245;-78
2022/03/19 11:55:06;;;;;;;17.37;12.57;;;;;;;16.19;29.36;100466.75;7021293;28;20293;-78
2022/03/19 11:58:28;;;;;;;15.33;12.30;;;;;;;14.89;29.03;100415.91;7026739;28;20232;-78
2022/03/19 12:01:55;;;;;;;14.37;11.90;;;;;;;14.83;30.70;100447.41;7026827;28;20229;-78
2022/03/19 12:05:18;;;;;;;17.70;11.93;;;;;;;16.17;29.61;100427.19;7027167;28;20193;-78
2022/03/19 12:08:49;;;;;;;16.23;12.07;;;;;;;16.15;29.29;100432.00;7025125;28;20325;-78
2022/03/19 12:12:24;;;;;;;17.83;11.60;;;;;;;15.66;30.79;100429.38;7027402;28;20188;-78
2022/03/19 12:15:49;;;;;;;14.97;11.37;;;;;;;16.42;29.36;100429.22;7019426;28;20202;-78
2022/03/19 12:19:12;;;;;;;12.90;9.87;;;;;;;15.40;28.44;100373.97;7003057;28;20362;-78
2022/03/19 12:22:35;;;;;;;12.53;9.70;;;;;;;16.28;28.87;100402.94;7010574;28;20339;-79
2022/03/19 12:26:04;;;;;;;13.77;9.93;;;;;;;15.61;27.95;100395.66;7025813;28;20342;-78
2022/03/19 12:29:30;;;;;;;15.30;10.80;;;;;;;16.21;28.50;100371.31;7025818;28;20238;-78
2022/03/19 12:32:55;;;;;;;14.13;10.40;;;;;;;16.86;26.95;100383.25;7031471;28;20192;-79
2022/03/19 12:36:19;;;;;;;13.23;10.43;;;;;;;15.91;28.13;100367.16;7025767;28;20201;-77
2022/03/19 12:39:41;;;;;;;14.37;11.47;;;;;;;15.91;27.67;100369.88;7025776;28;20197;-78
2022/03/19 12:43:02;;;;;;;13.93;10.27;;;;;;;15.29;27.82;100366.31;7025538;28;20292;-78
2022/03/19 12:46:25;;;;;;;13.97;10.30;;;;;;;14.93;28.43;100362.88;7025374;28;20668;-78
2022/03/19 12:49:51;;;;;;;11.80;9.07;;;;;;;16.81;27.56;100303.19;7025933;28;20241;-78
2022/03/19 12:53:14;;;;;;;12.23;9.80;;;;;;;16.01;27.60;100292.31;7025442;28;20287;-78
2022/03/19 12:56:38;;;;;;;12.00;8.73;;;;;;;15.08;26.77;100276.69;7024758;28;20225;-77
2022/03/19 13:00:00;;;;;;;10.53;8.63;;;;;;;15.08;28.04;100337.31;7025571;28;20737;-78
2022/03/19 13:03:30;;;;;;;12.37;8.77;;;;;;;15.15;28.83;100346.34;7025801;28;20215;-78
2022/03/19 13:06:52;;;;;;;15.33;9.53;;;;;;;15.84;28.72;100337.22;7024520;28;20624;-77
2022/03/19 13:10:16;;;;;;;9.53;8.33;;;;;;;16.48;26.63;100308.59;7017052;28;20623;-78
2022/03/19 13:13:37;;;;;;;13.90;9.03;;;;;;;15.13;28.57;100309.53;7029009;28;20198;-77
2022/03/19 13:16:59;;;;;;;16.03;10.47;;;;;;;16.34;28.54;100295.94;7034421;28;20238;-77
2022/03/19 13:20:21;;;;;;;10.40;7.27;;;;;;;14.85;28.72;100317.69;7028261;28;20232;-78
2022/03/19 13:23:43;;;;;;;10.50;7.53;;;;;;;15.10;28.73;100289.03;7026146;28;20205;-84
2022/03/19 13:27:06;;;;;;;11.00;7.40;;;;;;;15.19;28.14;100282.44;7026763;28;20760;-79
2022/03/19 13:30:27;;;;;;;9.00;6.70;;;;;;;16.20;26.86;100280.66;7028128;28;20258;-78
2022/03/19 13:33:49;;;;;;;8.03;6.63;;;;;;;17.19;25.37;100298.78;7025336;28;20211;-79
2022/03/19 13:37:12;;;;;;;11.37;6.63;;;;;;;16.90;26.11;100272.81;7025494;28;20268;-79
2022/03/19 13:40:33;;;;;;;8.57;6.37;;;;;;;16.87;25.90;100264.22;7026393;28;20221;-81
2022/03/19 13:43:56;;;;;;;8.57;6.23;;;;;;;16.90;25.51;100275.53;7001386;28;20204;-80
2022/03/19 13:47:20;;;;;;;9.47;5.73;;;;;;;16.87;24.38;100264.22;7002601;28;20312;-79
2022/03/19 13:50:56;;;;;;;10.03;5.90;;;;;;;17.38;24.25;100246.97;7027156;28;20294;-80
2022/03/19 13:54:18;;;;;;;7.20;5.80;;;;;;;16.19;23.70;100269.97;7024976;28;20204;-78
2022/03/19 13:57:41;;;;;;;7.77;5.30;;;;;;;15.62;24.40;100261.41;7025715;28;20238;-79
2022/03/19 14:01:13;;;;;;;7.87;5.40;;;;;;;16.82;22.97;100231.31;7027087;28;20651;-78
2022/03/19 14:04:36;;;;;;;8.83;5.40;;;;;;;14.70;26.07;100237.34;7026392;28;20195;-79
2022/03/19 14:07:58;;;;;;;6.80;5.10;;;;;;;15.93;26.25;100235.34;7026707;28;20631;-79
2022/03/19 14:11:23;;;;;;;9.77;5.67;;;;;;;16.52;25.37;100239.03;7026183;28;20691;-78
2022/03/19 14:14:44;;;;;;;7.57;5.23;;;;;;;15.21;26.05;100236.88;7025401;28;20649;-78
2022/03/19 14:18:07;;;;;;;6.50;4.50;;;;;;;14.62;26.96;100238.31;7024374;28;20227;-78
2022/03/19 14:21:29;;;;;;;7.80;4.73;;;;;;;15.95;26.30;100229.72;7025868;28;20282;-78
2022/03/19 14:24:52;;;;;;;7.10;4.63;;;;;;;15.15;26.53;100218.66;7025031;28;20301;-78
2022/03/19 14:28:15;;;;;;;6.87;4.90;;;;;;;16.04;25.98;100204.81;7025319;28;20228;-78
2022/03/19 14:31:36;;;;;;;7.07;5.07;;;;;;;16.31;24.99;100217.44;7025913;28;20335;-79
2022/03/19 14:34:59;;;;;;;5.83;4.53;;;;;;;15.06;26.39;100222.59;7026904;28;20291;-79
2022/03/19 14:38:24;;;;;;;7.67;5.20;;;;;;;15.81;25.41;100207.06;7027066;28;20227;-78
2022/03/19 14:41:46;;;;;;;5.87;4.57;;;;;;;17.14;25.25;100203.16;7028166;28;20220;-79
2022/03/19 14:45:09;;;;;;;5.70;4.50;;;;;;;16.46;25.15;100206.38;7023079;28;20205;-78
2022/03/19 14:48:31;;;;;;;8.13;4.57;;;;;;;16.75;25.38;100200.53;7002712;28;20262;-78
2022/03/19 14:51:54;;;;;;;6.00;4.50;;;;;;;16.57;25.95;100205.75;7005563;28;20225;-78
2022/03/19 14:55:16;;;;;;;7.23;4.70;;;;;;;15.56;26.11;100158.88;7027931;28;20687;-78
2022/03/19 14:58:39;;;;;;;9.13;4.90;;;;;;;15.71;25.58;100206.63;7022542;28;20701;-78
2022/03/19 15:02:01;;;;;;;6.30;4.77;;;;;;;13.86;29.39;100202.09;7012196;28;20228;-79
2022/03/19 15:05:23;;;;;;;6.00;4.63;;;;;;;14.36;28.16;100212.84;7027273;28;20659;-78
2022/03/19 15:08:46;;;;;;;5.07;3.43;;;;;;;14.43;27.28;100165.72;7035933;28;20224;-79
2022/03/19 15:12:09;;;;;;;6.07;3.90;;;;;;;14.72;26.10;100202.69;7044524;28;20729;-79
2022/03/19 15:15:30;;;;;;;7.17;4.03;;;;;;;14.21;27.95;100201.22;7042407;28;20205;-79
2022/03/19 15:18:52;;;;;;;7.23;4.43;;;;;;;13.41;31.48;100237.59;7042665;28;20261;-78
2022/03/19 15:22:14;;;;;;;6.13;4.63;;;;;;;13.09;34.02;100230.69;7047867;28;20225;-78
2022/03/19 15:25:37;;;;;;;5.97;4.77;;;;;;;12.86;37.59;100267.78;7045526;28;20197;-78
2022/03/19 15:28:58;;;;;;;7.13;5.70;;;;;;;12.22;41.01;100278.34;7030927;28;20228;-79
2022/03/19 15:32:21;;;;;;;8.83;6.43;;;;;;;11.08;43.66;100297.91;7029217;28;20202;-79
2022/03/19 15:35:42;;;;;;;9.20;6.73;;;;;;;10.69;44.22;100266.44;7029236;28;20692;-79
2022/03/19 15:39:07;;;;;;;7.90;5.70;;;;;;;10.91;44.18;100280.06;7028480;28;20228;-78
2022/03/19 15:42:31;;;;;;;7.67;5.20;;;;;;;11.90;41.83;100268.56;7029018;28;20216;-79
2022/03/19 15:45:53;;;;;;;6.63;5.37;;;;;;;12.03;41.12;100251.78;7029215;28;20220;-79
2022/03/19 15:49:14;;;;;;;7.83;5.50;;;;;;;12.29;40.28;100244.13;7029343;28;20225;-79